Alton, ME

7:08 PM EDT on June 29, 2015 (GMT -0400)
Essex St Hill | | Change Station
CLOSE
Current Station
Personal Weather Station
Location: Bangor, ME
Elevation: 208 ft
Nearby Weather Stations

Elev 208 ft 44.82 °N, 68.77 °W | Updated 6 seconds ago

Mostly Cloudy
Mostly Cloudy
66.9 °F
Feels Like 66.9 °F
N
0.0
Wind Variable Wind from West
Gusts 0.0 mph

Today
High -- | Low -- °F
--% Chance of Precip.
Yesterday
High -- | Low -- °F
Precip. -- in
4:50 AM 8:25 PM
Waxing Gibbous, 95% visible
Pressure 29.83 in
Visibility 10.0 miles
Clouds Scattered Clouds 5000 ft
Mostly Cloudy 6500 ft
Dew Point 58 °F
Humidity 73%
Rainfall 0.05 in
Snow Depth Not available.
UV 0 out of 12
Pollen .70 out of 12
Air Quality Not available.
Flu Activity Regional
METAR KBGR 292253Z 20004KT 10SM SCT050 BKN065 18/14 A2983 RMK AO2 SLP100 T01830139

More Conditions Fewer Conditions

Pressure 29.83 in
Visibility 10.0 miles
Clouds Scattered Clouds 5000 ft
Mostly Cloudy 6500 ft
Dew Point 58 °F
Humidity 73%
Rainfall 0.05 in
Snow Depth Not available.
UV 0 out of 12
Pollen .70 out of 12
Air Quality Not available.
Flu Activity Regional
METAR KBGR 292253Z 20004KT 10SM SCT050 BKN065 18/14 A2983 RMK AO2 SLP100 T01830139

More Conditions Fewer Conditions

10-Day Weather Forecast

×

Almanac

Astronomy

Jun. 29, 2015 Rise Set
Actual Time
Civil Twilight
Nautical Twilight
Astronomical Twilight
Moon
Length of Visible Light
Length of Day
Tomorrow will be .
, % of the Moon is Illuminated

Today's Extremes

State Highs State Lows

Community

WunderPhotos

Upload Photos

1,833,876 photos uploaded!

WunderBlogs® & News

Nearby

Air Quality

  Air Quality AQ Index Pollutant
Not available.

Snow Depth

Station Depth Elevation

Earthquake Activity

City Distance Mag. Time & Date
Minimum magnitude displayed is 2.5.

Coastal Water Temperatures

Place Temperature

Stations

Nearby Weather Stations

Station Location Temp. Windchill Dew Point Humidity Wind Precip. Elev Updated Type